Dazey, North Dakota
Current Conditions -  °F | °C
As of 10:15 PM on Thursday 27 Nov 2014 (Local Time) from KBAC Reporting Station
Light Snow Light Snow  
Wind Chill: -13°   Ceiling: 300
Heat Index:   Visibility: 2mi
Dew Point:   Wind: 15mph
Humidity: 92%   Direction: 130°SE
Pressure: 30.03"   Gusts: NA
Location:  47.19°N, 98.2°W
Report Text: KBAC 280415Z AUTO 13013KT 2SM -SN BKN003 OVC023 M15/M16 A3003 RMK AO2 P0001
Loading
Personal Weather Stations






























Interactive Weather Map New forecast layout! Learn more

10-Day Weather Forecast

Advertisements
Track Severe Weather on mobile